createdAt,value
2023-03-18T00:00:24.826Z,9.40
2023-03-18T00:05:26.269Z,9.02
2023-03-18T00:10:27.746Z,8.50
2023-03-18T00:15:29.426Z,8.45
2023-03-18T00:20:39.027Z,7.90
2023-03-18T00:25:40.647Z,8.55
2023-03-18T00:30:42.701Z,8.18
2023-03-18T00:35:45.550Z,9.30
2023-03-18T00:40:53.846Z,8.82
2023-03-18T00:45:56.540Z,8.98
2023-03-18T00:50:58.038Z,8.45
2023-03-18T00:55:59.533Z,8.38
2023-03-18T01:01:01.381Z,8.90
2023-03-18T01:06:04.361Z,9.70
2023-03-18T01:11:06.044Z,8.98
2023-03-18T01:16:08.645Z,8.48
2023-03-18T01:21:10.565Z,9.00
2023-03-18T01:26:12.576Z,9.52
2023-03-18T01:31:15.327Z,9.68
2023-03-18T01:36:17.624Z,10.75
2023-03-18T01:41:19.243Z,10.02
2023-03-18T01:46:44.911Z,10.55
2023-03-18T01:51:56.532Z,9.50
2023-03-18T01:56:57.981Z,10.32
2023-03-18T02:02:04.598Z,10.95
2023-03-18T02:07:07.925Z,11.38
2023-03-18T02:12:10.414Z,11.60
2023-03-18T02:17:14.341Z,12.00
2023-03-18T02:22:23.839Z,12.25
2023-03-18T02:27:26.539Z,12.60
2023-03-18T02:32:29.197Z,12.20
2023-03-18T02:37:30.720Z,11.98
2023-03-18T02:42:32.419Z,11.90
2023-03-18T02:47:33.865Z,13.27
2023-03-18T02:52:35.478Z,12.57
2023-03-18T02:57:36.915Z,12.57
2023-03-18T03:02:38.514Z,12.38
2023-03-18T03:07:40.044Z,11.52
2023-03-18T03:12:41.458Z,10.73
2023-03-18T03:17:43.047Z,12.32
2023-03-18T03:22:44.773Z,12.88
2023-03-18T03:27:46.192Z,12.85
2023-03-18T03:32:47.796Z,12.88
2023-03-18T03:37:49.309Z,12.68
2023-03-18T03:42:51.126Z,11.70
2023-03-18T03:47:52.603Z,12.82
2023-03-18T03:52:54.241Z,12.38
2023-03-18T03:57:56.548Z,11.30
2023-03-18T04:02:58.072Z,11.70
2023-03-18T04:08:00.167Z,13.80
2023-03-18T04:13:02.060Z,13.63
2023-03-18T04:18:06.938Z,13.82
2023-03-18T04:23:09.682Z,15.43
2023-03-18T04:28:11.112Z,13.82
2023-03-18T04:33:12.945Z,14.90
2023-03-18T04:38:14.711Z,14.65
2023-03-18T04:43:16.168Z,15.75
2023-03-18T04:48:18.180Z,14.50
2023-03-18T04:53:19.875Z,14.43
2023-03-18T04:58:21.240Z,14.40
2023-03-18T05:03:22.865Z,15.77
2023-03-18T05:08:24.369Z,14.60
2023-03-18T05:13:25.885Z,14.57
2023-03-18T05:18:27.354Z,14.88
2023-03-18T05:23:29.502Z,14.30
2023-03-18T05:28:31.610Z,14.15
2023-03-18T05:33:33.345Z,16.33
2023-03-18T05:38:34.813Z,15.18
2023-03-18T05:43:36.764Z,16.13
2023-03-18T05:48:38.203Z,15.35
2023-03-18T05:53:39.600Z,15.45
2023-03-18T05:58:41.071Z,15.60
2023-03-18T06:03:42.859Z,16.05
2023-03-18T06:08:45.200Z,16.15
2023-03-18T06:13:46.734Z,14.48
2023-03-18T06:18:49.097Z,14.25
2023-03-18T06:23:50.982Z,14.27
2023-03-18T06:28:52.457Z,15.48
2023-03-18T06:33:53.892Z,15.60
2023-03-18T06:38:56.019Z,14.73
2023-03-18T06:43:58.520Z,14.60
2023-03-18T06:49:00.071Z,14.07
2023-03-18T06:54:01.505Z,13.80
2023-03-18T06:59:03.658Z,13.07
2023-03-18T07:04:06.917Z,12.77
2023-03-18T07:09:11.245Z,12.88
2023-03-18T07:14:14.550Z,12.55
2023-03-18T07:19:17.769Z,13.32
2023-03-18T07:24:21.250Z,13.50
2023-03-18T07:29:22.744Z,13.55
2023-03-18T07:34:24.235Z,14.77
2023-03-18T07:39:26.176Z,15.07
2023-03-18T07:44:27.678Z,14.93
2023-03-18T07:49:30.050Z,14.80
2023-03-18T07:54:31.501Z,13.80
2023-03-18T07:59:33.216Z,13.68
2023-03-18T08:04:35.638Z,14.00
2023-03-18T08:09:37.415Z,14.32
2023-03-18T08:14:39.793Z,13.25
2023-03-18T08:19:41.654Z,14.95
2023-03-18T08:24:45.464Z,14.18
2023-03-18T08:29:46.980Z,14.40
2023-03-18T08:34:48.383Z,15.55
2023-03-18T08:39:49.793Z,14.15
2023-03-18T08:44:51.237Z,13.98
2023-03-18T08:49:52.680Z,13.10
2023-03-18T08:54:54.378Z,12.68
2023-03-18T08:59:55.861Z,12.85
2023-03-18T09:04:57.296Z,13.73
2023-03-18T09:09:58.676Z,11.48
2023-03-18T09:15:00.119Z,12.15
2023-03-18T09:20:01.587Z,11.43
2023-03-18T09:25:03.111Z,11.68
2023-03-18T09:30:06.859Z,11.82
2023-03-18T09:35:12.564Z,11.38
2023-03-18T09:40:28.024Z,12.25
2023-03-18T09:45:54.194Z,13.25
2023-03-18T09:50:56.789Z,13.18
2023-03-18T09:56:00.979Z,15.07
2023-03-18T10:01:04.025Z,14.25
2023-03-18T10:06:05.482Z,13.75
2023-03-18T10:11:11.602Z,14.93
2023-03-18T10:16:18.174Z,14.60
2023-03-18T10:21:45.514Z,14.82
2023-03-18T10:26:57.684Z,15.65
2023-03-18T10:32:14.184Z,12.90
2023-03-18T10:37:15.614Z,14.57
2023-03-18T10:42:25.289Z,14.18
2023-03-18T10:47:28.428Z,13.02
2023-03-18T10:52:30.688Z,13.93
2023-03-18T10:57:33.390Z,14.90
2023-03-18T11:02:36.478Z,13.27
2023-03-18T11:07:54.949Z,11.48
2023-03-18T11:13:03.245Z,11.00
2023-03-18T11:18:05.922Z,11.02
2023-03-18T11:23:14.365Z,11.00
2023-03-18T11:28:23.206Z,11.85
2023-03-18T11:33:25.737Z,12.50
2023-03-18T11:38:28.838Z,11.88
2023-03-18T11:43:30.614Z,13.25
2023-03-18T11:48:36.863Z,13.27
2023-03-18T11:53:38.316Z,13.65
2023-03-18T11:58:51.848Z,13.85
2023-03-18T12:10:16.146Z,12.15
2023-03-18T12:15:18.481Z,11.57
2023-03-18T12:20:29.250Z,10.18
2023-03-18T12:31:14.244Z,11.68
2023-03-18T12:36:15.623Z,11.80
2023-03-18T12:41:29.561Z,10.35
2023-03-18T12:46:31.836Z,9.32
2023-03-18T12:51:40.520Z,9.38
2023-03-18T12:56:45.997Z,10.77
2023-03-18T13:02:00.649Z,10.23
2023-03-18T13:07:07.051Z,10.07
2023-03-18T13:12:09.243Z,10.77
2023-03-18T13:17:13.811Z,9.32
2023-03-18T13:22:18.004Z,9.43
2023-03-18T13:27:30.100Z,9.80
2023-03-18T13:32:34.444Z,9.93
2023-03-18T13:37:39.610Z,11.43
2023-03-18T13:42:41.506Z,9.95
2023-03-18T13:47:44.332Z,8.85
2023-03-18T13:52:46.834Z,8.00
2023-03-18T13:57:54.628Z,7.78
2023-03-18T14:03:23.341Z,7.78
2023-03-18T14:08:33.958Z,8.68
2023-03-18T14:13:36.194Z,8.63
2023-03-18T14:18:38.154Z,7.85
2023-03-18T14:23:42.684Z,7.60
2023-03-18T14:28:45.651Z,6.60
2023-03-18T14:33:53.672Z,7.38
2023-03-18T14:39:03.012Z,6.85
2023-03-18T14:44:07.753Z,6.45
2023-03-18T14:49:38.282Z,6.00
2023-03-18T14:54:43.540Z,6.18
2023-03-18T14:59:44.975Z,5.78
2023-03-18T15:04:52.475Z,5.63
2023-03-18T15:09:54.311Z,4.57
2023-03-18T15:14:55.909Z,3.55
2023-03-18T15:20:00.014Z,3.80
2023-03-18T15:25:03.567Z,3.30
2023-03-18T15:30:06.107Z,4.07
2023-03-18T15:35:07.557Z,4.00
2023-03-18T15:40:38.560Z,3.60
2023-03-18T15:45:41.609Z,3.80
2023-03-18T15:50:51.797Z,4.28
2023-03-18T15:55:55.532Z,4.30
2023-03-18T16:00:58.181Z,3.95
2023-03-18T16:05:59.750Z,3.47
2023-03-18T16:11:02.264Z,3.60
2023-03-18T16:16:03.918Z,3.33
2023-03-18T16:21:05.876Z,3.13
2023-03-18T16:26:16.198Z,3.22
2023-03-18T16:36:26.808Z,3.63
2023-03-18T16:41:28.270Z,3.63
2023-03-18T16:46:29.939Z,3.13
2023-03-18T16:51:32.134Z,3.13
2023-03-18T16:56:33.607Z,3.15
2023-03-18T17:01:35.509Z,3.17
2023-03-18T17:06:36.995Z,3.70
2023-03-18T17:11:38.880Z,2.25
2023-03-18T17:16:40.421Z,2.15
2023-03-18T17:21:41.964Z,2.78
2023-03-18T17:26:43.679Z,2.63
2023-03-18T17:31:45.157Z,3.13
2023-03-18T17:36:47.065Z,2.58
2023-03-18T17:41:48.484Z,2.60
2023-03-18T17:46:50.481Z,2.03
2023-03-18T17:51:52.906Z,2.60
2023-03-18T17:56:54.683Z,3.33
2023-03-18T18:01:56.249Z,3.13
2023-03-18T18:06:57.734Z,3.20
2023-03-18T18:11:59.279Z,3.38
2023-03-18T18:17:01.413Z,3.42
2023-03-18T18:22:04.474Z,3.35
2023-03-18T18:27:06.231Z,3.80
2023-03-18T18:32:07.671Z,3.50
2023-03-18T18:37:09.516Z,3.10
2023-03-18T18:42:12.430Z,3.00
2023-03-18T18:47:19.997Z,3.30
2023-03-18T18:52:21.430Z,3.10
2023-03-18T18:57:26.842Z,2.50
2023-03-18T19:02:30.741Z,2.92
2023-03-18T19:07:33.708Z,2.85
2023-03-18T19:12:35.552Z,3.33
2023-03-18T19:17:37.649Z,2.92
2023-03-18T19:22:39.214Z,3.50
2023-03-18T19:27:40.864Z,3.72
2023-03-18T19:32:43.182Z,3.67
2023-03-18T19:37:46.218Z,3.80
2023-03-18T19:42:48.139Z,3.30
2023-03-18T19:47:49.680Z,4.60
2023-03-18T19:52:51.312Z,4.28
2023-03-18T19:57:53.754Z,3.80
2023-03-18T20:02:55.747Z,4.13
2023-03-18T20:07:57.303Z,4.28
2023-03-18T20:12:58.774Z,4.22
2023-03-18T20:18:03.335Z,4.50
2023-03-18T20:23:10.297Z,4.32
2023-03-18T20:28:17.282Z,4.32
2023-03-18T20:33:20.759Z,4.28
2023-03-18T20:38:32.821Z,3.88
2023-03-18T20:43:34.325Z,3.75
2023-03-18T20:48:38.029Z,3.90
2023-03-18T20:53:39.443Z,3.72
2023-03-18T20:58:41.267Z,3.10
2023-03-18T21:03:42.991Z,2.33
2023-03-18T21:08:44.489Z,2.60
2023-03-18T21:13:45.977Z,2.20
2023-03-18T21:18:48.259Z,2.22
2023-03-18T21:23:50.136Z,2.17
2023-03-18T21:28:52.565Z,1.85
2023-03-18T21:33:55.428Z,1.90
2023-03-18T21:38:56.800Z,1.90
2023-03-18T21:43:58.208Z,1.95
2023-03-18T21:48:59.965Z,1.90
2023-03-18T21:54:01.802Z,1.92
2023-03-18T21:59:03.308Z,2.10
2023-03-18T22:04:04.799Z,2.88
2023-03-18T22:09:07.202Z,2.58
2023-03-18T22:14:10.897Z,3.78
2023-03-18T22:19:12.729Z,2.92
2023-03-18T22:24:14.426Z,3.47
2023-03-18T22:29:16.186Z,2.85
2023-03-18T22:34:24.086Z,2.72
2023-03-18T22:39:25.622Z,2.80
2023-03-18T22:44:27.398Z,2.40
2023-03-18T22:49:28.972Z,2.63
2023-03-18T22:54:31.929Z,2.50
2023-03-18T22:59:33.539Z,2.55
2023-03-18T23:04:34.953Z,2.30
2023-03-18T23:09:44.223Z,2.50
2023-03-18T23:14:52.792Z,2.75
2023-03-18T23:19:54.232Z,2.35
2023-03-18T23:24:56.059Z,2.83
2023-03-18T23:29:57.863Z,2.30
2023-03-18T23:34:59.327Z,2.08
2023-03-18T23:40:00.727Z,2.00
2023-03-18T23:45:04.055Z,1.88
2023-03-18T23:50:06.394Z,1.88
2023-03-18T23:55:21.367Z,2.10
